Overview Statistics Trail Chart Weather Telemetry Raw packets
 

This is the latest recevied weather packets stored in our database for station/object G4KVI. If no packets are shown the sender has not sent any weather packets the latest 10 day(s).

<< 47 48 49 50 51 52 53 >>
Time Temp. Humidity Pressure Rain* Wind** Luminosity Snow
1788275705 20.56° C 58% 1022.4 hPa 0 mm - 267 W/m² -
1788275406 20.56° C 58% 1022.2 hPa 0 mm - 330 W/m² -
1788275126 20.56° C 58% 1022.3 hPa 0 mm - 276 W/m² -
1788274805 20.56° C 58% 1022.4 hPa 0 mm - 431 W/m² -
1788274505 20.56° C 55% 1022.6 hPa 0 mm - 260 W/m² -
1788274206 21.11° C 57% 1022.4 hPa 0 mm - 288 W/m² -
1788273905 20.56° C 60% 1022.4 hPa 0 mm - 441 W/m² -
1788273605 20.56° C 59% 1022.3 hPa 0 mm - 331 W/m² -
1788273326 20.56° C 59% 1022.5 hPa 0 mm - 350 W/m² -
1788273005 20.56° C 60% 1022.5 hPa 0 mm - 337 W/m² -
1788272705 20° C 60% 1022.6 hPa 0 mm - 263 W/m² -
1788272405 20.56° C 59% 1022.7 hPa 0 mm - 206 W/m² -
1788272105 20.56° C 57% 1022.7 hPa 0 mm - 173 W/m² -
1788271805 20.56° C 56% 1022.3 hPa 0 mm - 243 W/m² -
1788271505 20° C 58% 1022.8 hPa 0 mm - 361 W/m² -
1788271205 20.56° C 57% 1022.6 hPa 0 mm - 159 W/m² -
1788270906 20.56° C 56% 1022.8 hPa 0 mm - 152 W/m² -
1788270605 20.56° C 55% 1022.6 hPa 0 mm - 237 W/m² -
1788270305 20.56° C 57% 1022.6 hPa 0 mm - 302 W/m² -
1788270005 20.56° C 55% 1022.8 hPa 0 mm - 253 W/m² -
1788269705 20.56° C 57% 1022.6 hPa 0 mm - 415 W/m² -
1788269405 20.56° C 55% 1022.8 hPa 0 mm - 307 W/m² -
1788269105 21.67° C 53% 1022.7 hPa 0 mm - 258 W/m² -
1788268805 21.67° C 52% 1022.7 hPa 0 mm - 338 W/m² -
1788268505 21.11° C 53% 1022.6 hPa 0 mm - 694 W/m² -

* Rain latest hour (hover to see other rain measurements)
** Current wind speed in m/s (hover to see current wind gust speed)